sensor_id;sensor_type;location;lat;lon;timestamp;pressure;altitude;pressure_sealevel;temperature;humidity
31717;BME280;18301;51.076;17.046;2022-08-19T00:00:12;99438.47;;;26.24;60.48
31717;BME280;18301;51.076;17.046;2022-08-19T00:05:15;99436.75;;;26.23;60.73
31717;BME280;18301;51.076;17.046;2022-08-19T00:10:19;99425.09;;;26.21;60.48
31717;BME280;18301;51.076;17.046;2022-08-19T00:15:21;99406.09;;;26.13;60.71
31717;BME280;18301;51.076;17.046;2022-08-19T00:20:23;99395.41;;;26.05;60.93
31717;BME280;18301;51.076;17.046;2022-08-19T00:25:25;99383.50;;;25.92;61.71
31717;BME280;18301;51.076;17.046;2022-08-19T00:30:31;99376.16;;;25.86;61.63
31717;BME280;18301;51.076;17.046;2022-08-19T00:35:32;99376.69;;;25.77;61.91
31717;BME280;18301;51.076;17.046;2022-08-19T00:40:34;99378.09;;;25.67;62.46
31717;BME280;18301;51.076;17.046;2022-08-19T00:45:36;99392.88;;;25.61;62.63
31717;BME280;18301;51.076;17.046;2022-08-19T00:50:40;99413.53;;;25.59;62.97
31717;BME280;18301;51.076;17.046;2022-08-19T00:55:55;99396.50;;;25.62;62.93
31717;BME280;18301;51.076;17.046;2022-08-19T01:00:58;99363.34;;;25.62;63.63
31717;BME280;18301;51.076;17.046;2022-08-19T01:05:59;99371.28;;;25.28;65.27
31717;BME280;18301;51.076;17.046;2022-08-19T01:11:02;99370.88;;;25.13;67.28
31717;BME280;18301;51.076;17.046;2022-08-19T01:16:11;99361.94;;;25.11;66.75
31717;BME280;18301;51.076;17.046;2022-08-19T01:26:31;99332.22;;;25.13;66.41
31717;BME280;18301;51.076;17.046;2022-08-19T01:31:32;99329.28;;;25.08;66.73
31717;BME280;18301;51.076;17.046;2022-08-19T01:36:39;99331.41;;;25.06;67.07
31717;BME280;18301;51.076;17.046;2022-08-19T01:41:43;99327.75;;;24.93;67.32
31717;BME280;18301;51.076;17.046;2022-08-19T01:46:47;99328.59;;;24.94;66.61
31717;BME280;18301;51.076;17.046;2022-08-19T01:51:49;99321.03;;;24.89;67.18
31717;BME280;18301;51.076;17.046;2022-08-19T01:56:53;99324.41;;;24.91;66.45
31717;BME280;18301;51.076;17.046;2022-08-19T02:01:56;99329.63;;;24.81;67.01
31717;BME280;18301;51.076;17.046;2022-08-19T02:06:58;99339.06;;;24.73;66.73
31717;BME280;18301;51.076;17.046;2022-08-19T02:12:00;99325.13;;;24.68;67.20
31717;BME280;18301;51.076;17.046;2022-08-19T02:17:02;99318.03;;;24.61;66.76
31717;BME280;18301;51.076;17.046;2022-08-19T02:22:04;99299.75;;;24.60;67.23
31717;BME280;18301;51.076;17.046;2022-08-19T02:27:06;99303.44;;;24.53;67.03
31717;BME280;18301;51.076;17.046;2022-08-19T02:32:07;99299.94;;;24.46;67.22
31717;BME280;18301;51.076;17.046;2022-08-19T02:37:09;99290.44;;;24.42;67.26
31717;BME280;18301;51.076;17.046;2022-08-19T02:42:35;99298.78;;;24.35;67.86
31717;BME280;18301;51.076;17.046;2022-08-19T02:47:37;99300.53;;;24.30;67.67
31717;BME280;18301;51.076;17.046;2022-08-19T02:52:39;99304.03;;;24.19;68.21
31717;BME280;18301;51.076;17.046;2022-08-19T02:57:40;99297.31;;;24.15;68.05
31717;BME280;18301;51.076;17.046;2022-08-19T03:02:43;99289.50;;;24.11;68.21
31717;BME280;18301;51.076;17.046;2022-08-19T03:07:45;99298.88;;;24.04;68.65
31717;BME280;18301;51.076;17.046;2022-08-19T03:12:47;99311.84;;;24.03;68.70
31717;BME280;18301;51.076;17.046;2022-08-19T03:17:49;99336.91;;;23.95;69.19
31717;BME280;18301;51.076;17.046;2022-08-19T03:22:51;99347.53;;;23.92;68.86
31717;BME280;18301;51.076;17.046;2022-08-19T03:27:53;99338.72;;;23.83;69.68
31717;BME280;18301;51.076;17.046;2022-08-19T03:32:54;99332.75;;;23.86;69.02
31717;BME280;18301;51.076;17.046;2022-08-19T03:38:00;99329.84;;;23.81;69.46
31717;BME280;18301;51.076;17.046;2022-08-19T03:43:02;99336.25;;;23.75;69.73
31717;BME280;18301;51.076;17.046;2022-08-19T03:48:04;99324.16;;;23.76;69.69
31717;BME280;18301;51.076;17.046;2022-08-19T03:53:05;99343.00;;;23.79;69.69
31717;BME280;18301;51.076;17.046;2022-08-19T03:58:08;99351.09;;;23.74;69.98
31717;BME280;18301;51.076;17.046;2022-08-19T04:03:12;99347.31;;;23.68;70.96
31717;BME280;18301;51.076;17.046;2022-08-19T04:08:14;99361.75;;;23.63;71.07
31717;BME280;18301;51.076;17.046;2022-08-19T04:13:19;99360.06;;;23.62;71.17
31717;BME280;18301;51.076;17.046;2022-08-19T04:18:21;99364.69;;;23.69;70.90
31717;BME280;18301;51.076;17.046;2022-08-19T04:23:23;99376.50;;;23.76;71.17
31717;BME280;18301;51.076;17.046;2022-08-19T04:28:25;99367.53;;;23.87;70.79
31717;BME280;18301;51.076;17.046;2022-08-19T04:33:27;99369.66;;;23.85;71.26
31717;BME280;18301;51.076;17.046;2022-08-19T04:38:29;99365.44;;;23.82;71.17
31717;BME280;18301;51.076;17.046;2022-08-19T04:43:32;99363.88;;;23.93;71.28
31717;BME280;18301;51.076;17.046;2022-08-19T04:48:35;99351.75;;;23.94;71.44
31717;BME280;18301;51.076;17.046;2022-08-19T04:53:45;99356.81;;;23.97;71.75
31717;BME280;18301;51.076;17.046;2022-08-19T04:58:47;99342.78;;;24.05;71.52
31717;BME280;18301;51.076;17.046;2022-08-19T05:03:50;99341.84;;;24.11;71.49
31717;BME280;18301;51.076;17.046;2022-08-19T05:08:51;99343.31;;;24.14;71.81
31717;BME280;18301;51.076;17.046;2022-08-19T05:13:53;99347.84;;;24.27;71.62
31717;BME280;18301;51.076;17.046;2022-08-19T05:18:56;99356.97;;;24.27;72.31
31717;BME280;18301;51.076;17.046;2022-08-19T05:24:16;99354.28;;;24.39;71.90
31717;BME280;18301;51.076;17.046;2022-08-19T05:29:20;99344.22;;;24.51;71.97
31717;BME280;18301;51.076;17.046;2022-08-19T05:34:24;99343.22;;;24.64;71.70
31717;BME280;18301;51.076;17.046;2022-08-19T05:39:30;99368.44;;;24.68;71.67
31717;BME280;18301;51.076;17.046;2022-08-19T05:44:35;99365.75;;;24.79;71.58
31717;BME280;18301;51.076;17.046;2022-08-19T05:49:37;99358.28;;;24.98;71.28
31717;BME280;18301;51.076;17.046;2022-08-19T05:54:40;99350.97;;;25.04;71.16
31717;BME280;18301;51.076;17.046;2022-08-19T05:59:42;99355.97;;;25.14;70.93
31717;BME280;18301;51.076;17.046;2022-08-19T06:04:47;99372.44;;;25.20;70.57
31717;BME280;18301;51.076;17.046;2022-08-19T06:09:48;99374.00;;;25.16;70.69
31717;BME280;18301;51.076;17.046;2022-08-19T06:15:05;99393.97;;;25.30;70.57
31717;BME280;18301;51.076;17.046;2022-08-19T06:20:09;99414.44;;;25.41;70.09
31717;BME280;18301;51.076;17.046;2022-08-19T06:25:14;99408.59;;;25.61;69.13
31717;BME280;18301;51.076;17.046;2022-08-19T06:30:16;99409.47;;;25.73;69.87
31717;BME280;18301;51.076;17.046;2022-08-19T06:35:17;99433.59;;;25.84;68.68
31717;BME280;18301;51.076;17.046;2022-08-19T06:40:19;99449.13;;;26.09;68.17
31717;BME280;18301;51.076;17.046;2022-08-19T06:45:22;99467.06;;;26.18;67.07
31717;BME280;18301;51.076;17.046;2022-08-19T06:50:35;99480.53;;;26.26;67.20
31717;BME280;18301;51.076;17.046;2022-08-19T06:55:40;99480.31;;;26.39;66.68
31717;BME280;18301;51.076;17.046;2022-08-19T07:00:42;99481.56;;;26.67;66.64
31717;BME280;18301;51.076;17.046;2022-08-19T07:05:44;99481.66;;;26.72;64.39
31717;BME280;18301;51.076;17.046;2022-08-19T07:10:46;99482.66;;;26.54;65.06
31717;BME280;18301;51.076;17.046;2022-08-19T07:15:49;99476.75;;;26.74;64.65
31717;BME280;18301;51.076;17.046;2022-08-19T07:21:02;99490.28;;;27.11;63.93
31717;BME280;18301;51.076;17.046;2022-08-19T07:26:18;99507.47;;;27.37;62.42
31717;BME280;18301;51.076;17.046;2022-08-19T07:31:28;99502.88;;;27.54;61.90
31717;BME280;18301;51.076;17.046;2022-08-19T07:36:31;99507.59;;;27.70;60.14
31717;BME280;18301;51.076;17.046;2022-08-19T07:41:34;99504.66;;;27.89;60.74
31717;BME280;18301;51.076;17.046;2022-08-19T07:46:40;99507.81;;;28.09;60.50
31717;BME280;18301;51.076;17.046;2022-08-19T07:51:47;99492.66;;;28.45;59.66
31717;BME280;18301;51.076;17.046;2022-08-19T07:56:49;99501.56;;;28.64;58.53
31717;BME280;18301;51.076;17.046;2022-08-19T08:01:52;99512.72;;;28.86;58.08
31717;BME280;18301;51.076;17.046;2022-08-19T08:06:55;99514.63;;;29.20;56.64
31717;BME280;18301;51.076;17.046;2022-08-19T08:12:19;99523.75;;;29.59;55.76
31717;BME280;18301;51.076;17.046;2022-08-19T08:17:35;99523.09;;;29.96;54.11
31717;BME280;18301;51.076;17.046;2022-08-19T08:22:52;99530.63;;;30.00;53.96
31717;BME280;18301;51.076;17.046;2022-08-19T08:28:12;99520.63;;;30.04;52.50
31717;BME280;18301;51.076;17.046;2022-08-19T08:33:20;99508.69;;;30.31;52.87
31717;BME280;18301;51.076;17.046;2022-08-19T08:38:36;99511.41;;;30.21;52.33
31717;BME280;18301;51.076;17.046;2022-08-19T08:43:45;99513.41;;;30.03;52.07
31717;BME280;18301;51.076;17.046;2022-08-19T08:54:19;99524.53;;;30.63;52.38
31717;BME280;18301;51.076;17.046;2022-08-19T08:59:28;99512.09;;;30.76;50.73
31717;BME280;18301;51.076;17.046;2022-08-19T09:04:35;99509.13;;;30.82;50.44
31717;BME280;18301;51.076;17.046;2022-08-19T09:09:40;99468.16;;;30.78;51.56
31717;BME280;18301;51.076;17.046;2022-08-19T09:15:03;99490.63;;;30.71;47.37
31717;BME280;18301;51.076;17.046;2022-08-19T09:25:14;99499.81;;;31.09;49.78
31717;BME280;18301;51.076;17.046;2022-08-19T09:30:22;99493.22;;;31.25;49.01
31717;BME280;18301;51.076;17.046;2022-08-19T09:35:28;99499.19;;;31.44;48.82
31717;BME280;18301;51.076;17.046;2022-08-19T09:40:30;99510.59;;;31.37;48.83
31717;BME280;18301;51.076;17.046;2022-08-19T09:45:38;99500.03;;;31.55;48.51
31717;BME280;18301;51.076;17.046;2022-08-19T09:50:40;99499.47;;;31.48;48.04
31717;BME280;18301;51.076;17.046;2022-08-19T09:55:54;99495.81;;;31.42;48.07
31717;BME280;18301;51.076;17.046;2022-08-19T10:00:58;99510.38;;;31.64;46.43
31717;BME280;18301;51.076;17.046;2022-08-19T10:06:02;99510.47;;;31.85;46.67
31717;BME280;18301;51.076;17.046;2022-08-19T10:11:05;99501.03;;;32.06;47.71
31717;BME280;18301;51.076;17.046;2022-08-19T10:16:27;99511.94;;;32.03;46.10
31717;BME280;18301;51.076;17.046;2022-08-19T10:21:32;99508.88;;;32.15;45.21
31717;BME280;18301;51.076;17.046;2022-08-19T10:26:36;99513.91;;;32.18;45.84
31717;BME280;18301;51.076;17.046;2022-08-19T10:31:38;99501.31;;;32.05;45.61
31717;BME280;18301;51.076;17.046;2022-08-19T10:37:00;99497.41;;;32.11;45.67
31717;BME280;18301;51.076;17.046;2022-08-19T10:42:06;99494.06;;;32.29;45.39
31717;BME280;18301;51.076;17.046;2022-08-19T10:47:08;99487.41;;;32.46;43.89
31717;BME280;18301;51.076;17.046;2022-08-19T10:52:25;99498.59;;;32.46;43.64
31717;BME280;18301;51.076;17.046;2022-08-19T10:57:39;99501.38;;;32.46;44.44
31717;BME280;18301;51.076;17.046;2022-08-19T11:03:01;99504.16;;;32.66;43.56
31717;BME280;18301;51.076;17.046;2022-08-19T11:08:03;99495.78;;;32.71;42.44
31717;BME280;18301;51.076;17.046;2022-08-19T11:13:23;99497.47;;;32.62;44.53
31717;BME280;18301;51.076;17.046;2022-08-19T11:18:26;99492.44;;;32.49;43.40
31717;BME280;18301;51.076;17.046;2022-08-19T11:23:27;99497.97;;;32.39;43.42
31717;BME280;18301;51.076;17.046;2022-08-19T11:28:29;99493.81;;;32.16;45.33
31717;BME280;18301;51.076;17.046;2022-08-19T11:33:31;99489.06;;;32.06;42.52
31717;BME280;18301;51.076;17.046;2022-08-19T11:38:35;99491.28;;;32.09;44.08
31717;BME280;18301;51.076;17.046;2022-08-19T11:43:37;99501.63;;;32.08;43.08
31717;BME280;18301;51.076;17.046;2022-08-19T11:48:39;99502.91;;;31.80;42.01
31717;BME280;18301;51.076;17.046;2022-08-19T11:53:41;99503.53;;;31.98;43.78
31717;BME280;18301;51.076;17.046;2022-08-19T11:58:43;99492.13;;;32.25;41.85
31717;BME280;18301;51.076;17.046;2022-08-19T12:03:46;99490.72;;;32.38;42.09
31717;BME280;18301;51.076;17.046;2022-08-19T12:08:48;99493.25;;;32.60;41.23
31717;BME280;18301;51.076;17.046;2022-08-19T12:13:51;99488.78;;;32.74;39.09
31717;BME280;18301;51.076;17.046;2022-08-19T12:18:54;99485.16;;;32.68;40.11
31717;BME280;18301;51.076;17.046;2022-08-19T12:23:58;99491.88;;;32.62;40.78
31717;BME280;18301;51.076;17.046;2022-08-19T12:29:00;99485.44;;;32.77;40.43
31717;BME280;18301;51.076;17.046;2022-08-19T12:34:01;99499.09;;;32.84;40.24
31717;BME280;18301;51.076;17.046;2022-08-19T12:39:04;99494.63;;;32.93;39.43
31717;BME280;18301;51.076;17.046;2022-08-19T12:44:10;99494.06;;;32.91;39.61
31717;BME280;18301;51.076;17.046;2022-08-19T12:49:15;99494.03;;;33.06;40.70
31717;BME280;18301;51.076;17.046;2022-08-19T12:54:37;99497.41;;;33.03;40.37
31717;BME280;18301;51.076;17.046;2022-08-19T12:59:38;99505.53;;;33.05;39.45
31717;BME280;18301;51.076;17.046;2022-08-19T13:04:40;99500.22;;;32.77;37.71
31717;BME280;18301;51.076;17.046;2022-08-19T13:09:42;99497.44;;;32.83;38.61
31717;BME280;18301;51.076;17.046;2022-08-19T13:14:44;99494.63;;;32.88;39.60
31717;BME280;18301;51.076;17.046;2022-08-19T13:19:51;99483.44;;;32.93;38.19
31717;BME280;18301;51.076;17.046;2022-08-19T13:24:53;99486.50;;;32.96;39.44
31717;BME280;18301;51.076;17.046;2022-08-19T13:29:55;99480.56;;;33.23;38.65
31717;BME280;18301;51.076;17.046;2022-08-19T13:35:16;99480.28;;;33.25;40.07
31717;BME280;18301;51.076;17.046;2022-08-19T13:40:23;99486.47;;;33.17;39.06
31717;BME280;18301;51.076;17.046;2022-08-19T13:45:29;99486.25;;;32.83;39.85
31717;BME280;18301;51.076;17.046;2022-08-19T13:50:31;99485.75;;;32.55;41.08
31717;BME280;18301;51.076;17.046;2022-08-19T13:55:33;99490.78;;;32.58;40.81
31717;BME280;18301;51.076;17.046;2022-08-19T14:00:38;99488.53;;;32.50;41.92
31717;BME280;18301;51.076;17.046;2022-08-19T14:05:40;99486.88;;;32.49;42.00
31717;BME280;18301;51.076;17.046;2022-08-19T14:10:42;99474.56;;;32.45;42.45
31717;BME280;18301;51.076;17.046;2022-08-19T14:15:46;99484.91;;;32.44;41.56
31717;BME280;18301;51.076;17.046;2022-08-19T14:20:48;99481.78;;;32.36;43.12
31717;BME280;18301;51.076;17.046;2022-08-19T14:25:50;99476.50;;;32.19;42.77
31717;BME280;18301;51.076;17.046;2022-08-19T14:30:52;99473.97;;;32.07;42.33
31717;BME280;18301;51.076;17.046;2022-08-19T14:35:57;99474.81;;;31.97;42.91
31717;BME280;18301;51.076;17.046;2022-08-19T14:46:09;99470.59;;;32.05;43.48
31717;BME280;18301;51.076;17.046;2022-08-19T14:51:12;99472.03;;;32.13;43.38
31717;BME280;18301;51.076;17.046;2022-08-19T14:56:17;99468.94;;;32.04;43.79
31717;BME280;18301;51.076;17.046;2022-08-19T15:01:21;99458.88;;;31.98;43.99
31717;BME280;18301;51.076;17.046;2022-08-19T15:06:24;99468.94;;;31.99;43.56
31717;BME280;18301;51.076;17.046;2022-08-19T15:11:27;99461.63;;;31.82;44.68
31717;BME280;18301;51.076;17.046;2022-08-19T15:16:29;99461.06;;;31.75;44.73
31717;BME280;18301;51.076;17.046;2022-08-19T15:21:31;99470.22;;;31.60;46.63
31717;BME280;18301;51.076;17.046;2022-08-19T15:26:33;99468.78;;;31.42;48.08
31717;BME280;18301;51.076;17.046;2022-08-19T15:31:35;99467.66;;;31.38;48.41
31717;BME280;18301;51.076;17.046;2022-08-19T15:36:39;99482.56;;;31.17;49.36
31717;BME280;18301;51.076;17.046;2022-08-19T15:41:41;99483.88;;;30.99;49.18
31717;BME280;18301;51.076;17.046;2022-08-19T15:46:47;99482.94;;;30.83;49.70
31717;BME280;18301;51.076;17.046;2022-08-19T15:51:49;99484.75;;;30.67;50.29
31717;BME280;18301;51.076;17.046;2022-08-19T15:56:53;99491.09;;;30.58;51.58
31717;BME280;18301;51.076;17.046;2022-08-19T16:02:16;99505.31;;;30.29;52.23
31717;BME280;18301;51.076;17.046;2022-08-19T16:07:37;99502.38;;;30.14;52.27
31717;BME280;18301;51.076;17.046;2022-08-19T16:12:39;99491.69;;;30.00;53.42
31717;BME280;18301;51.076;17.046;2022-08-19T16:17:42;99490.41;;;30.13;53.02
31717;BME280;18301;51.076;17.046;2022-08-19T16:22:57;99467.03;;;29.82;55.36
31717;BME280;18301;51.076;17.046;2022-08-19T16:27:59;99474.06;;;29.63;56.12
31717;BME280;18301;51.076;17.046;2022-08-19T16:33:08;99471.75;;;29.59;56.28
31717;BME280;18301;51.076;17.046;2022-08-19T16:38:10;99485.78;;;29.70;56.10
31717;BME280;18301;51.076;17.046;2022-08-19T16:43:12;99496.59;;;29.66;55.97
31717;BME280;18301;51.076;17.046;2022-08-19T16:48:13;99508.03;;;29.70;56.51
31717;BME280;18301;51.076;17.046;2022-08-19T16:53:17;99506.69;;;29.72;55.57
31717;BME280;18301;51.076;17.046;2022-08-19T16:58:20;99496.50;;;29.83;54.75
31717;BME280;18301;51.076;17.046;2022-08-19T17:03:29;99499.34;;;29.88;53.86
31717;BME280;18301;51.076;17.046;2022-08-19T17:08:36;99508.16;;;29.80;54.32
31717;BME280;18301;51.076;17.046;2022-08-19T17:13:37;99523.63;;;29.71;54.11
31717;BME280;18301;51.076;17.046;2022-08-19T17:18:39;99522.88;;;29.58;54.52
31717;BME280;18301;51.076;17.046;2022-08-19T17:23:41;99515.84;;;29.51;54.38
31717;BME280;18301;51.076;17.046;2022-08-19T17:28:49;99518.84;;;29.44;54.71
31717;BME280;18301;51.076;17.046;2022-08-19T17:33:51;99529.63;;;29.41;54.84
31717;BME280;18301;51.076;17.046;2022-08-19T17:38:58;99533.28;;;29.46;54.94
31717;BME280;18301;51.076;17.046;2022-08-19T17:44:01;99552.94;;;29.18;55.92
31717;BME280;18301;51.076;17.046;2022-08-19T17:49:03;99570.88;;;29.10;55.91
31717;BME280;18301;51.076;17.046;2022-08-19T17:54:14;99586.63;;;29.04;55.91
31717;BME280;18301;51.076;17.046;2022-08-19T17:59:16;99591.59;;;29.02;55.98
31717;BME280;18301;51.076;17.046;2022-08-19T18:04:18;99601.03;;;29.01;55.66
31717;BME280;18301;51.076;17.046;2022-08-19T18:09:27;99594.75;;;28.94;55.62
31717;BME280;18301;51.076;17.046;2022-08-19T18:14:42;99589.03;;;28.84;56.30
31717;BME280;18301;51.076;17.046;2022-08-19T18:19:45;99594.53;;;28.79;56.59
31717;BME280;18301;51.076;17.046;2022-08-19T18:24:48;99592.41;;;28.69;57.00
31717;BME280;18301;51.076;17.046;2022-08-19T18:29:49;99592.69;;;28.67;57.30
31717;BME280;18301;51.076;17.046;2022-08-19T18:34:52;99597.38;;;28.67;57.13
31717;BME280;18301;51.076;17.046;2022-08-19T18:39:54;99599.34;;;28.66;57.37
31717;BME280;18301;51.076;17.046;2022-08-19T18:45:14;99608.06;;;28.58;57.98
31717;BME280;18301;51.076;17.046;2022-08-19T18:50:34;99616.78;;;28.50;58.39
31717;BME280;18301;51.076;17.046;2022-08-19T18:55:37;99621.16;;;28.46;59.37
31717;BME280;18301;51.076;17.046;2022-08-19T19:00:39;99625.41;;;28.37;59.77
31717;BME280;18301;51.076;17.046;2022-08-19T19:05:42;99647.19;;;28.16;60.58
31717;BME280;18301;51.076;17.046;2022-08-19T19:10:44;99670.78;;;28.02;61.29
31717;BME280;18301;51.076;17.046;2022-08-19T19:15:47;99700.47;;;27.90;61.64
31717;BME280;18301;51.076;17.046;2022-08-19T19:20:49;99711.66;;;27.95;61.94
31717;BME280;18301;51.076;17.046;2022-08-19T19:25:50;99698.06;;;27.82;62.43
31717;BME280;18301;51.076;17.046;2022-08-19T19:30:54;99678.97;;;27.73;63.60
31717;BME280;18301;51.076;17.046;2022-08-19T19:35:58;99674.53;;;27.72;63.08
31717;BME280;18301;51.076;17.046;2022-08-19T19:41:00;99656.22;;;27.71;63.64
31717;BME280;18301;51.076;17.046;2022-08-19T19:46:02;99686.81;;;27.65;64.58
31717;BME280;18301;51.076;17.046;2022-08-19T19:51:07;99697.69;;;27.43;65.67
31717;BME280;18301;51.076;17.046;2022-08-19T19:56:10;99728.75;;;27.33;66.14
31717;BME280;18301;51.076;17.046;2022-08-19T20:01:13;99740.09;;;26.90;69.39
31717;BME280;18301;51.076;17.046;2022-08-19T20:06:25;99732.69;;;26.72;70.48
31717;BME280;18301;51.076;17.046;2022-08-19T20:16:48;99736.97;;;26.01;74.49
31717;BME280;18301;51.076;17.046;2022-08-19T20:21:50;99737.59;;;25.84;74.56
31717;BME280;18301;51.076;17.046;2022-08-19T20:26:52;99722.19;;;25.70;76.81
31717;BME280;18301;51.076;17.046;2022-08-19T20:31:54;99709.69;;;25.67;75.28
31717;BME280;18301;51.076;17.046;2022-08-19T20:36:59;99705.03;;;25.68;74.44
31717;BME280;18301;51.076;17.046;2022-08-19T20:42:01;99695.06;;;25.85;72.12
31717;BME280;18301;51.076;17.046;2022-08-19T20:47:03;99694.47;;;25.83;71.49
31717;BME280;18301;51.076;17.046;2022-08-19T20:52:04;99698.00;;;25.90;71.40
31717;BME280;18301;51.076;17.046;2022-08-19T20:57:06;99699.66;;;25.91;71.89
31717;BME280;18301;51.076;17.046;2022-08-19T21:02:09;99719.34;;;25.83;72.28
31717;BME280;18301;51.076;17.046;2022-08-19T21:07:11;99719.88;;;25.67;73.19
31717;BME280;18301;51.076;17.046;2022-08-19T21:12:13;99724.72;;;25.53;74.04
31717;BME280;18301;51.076;17.046;2022-08-19T21:17:14;99722.94;;;25.40;72.90
31717;BME280;18301;51.076;17.046;2022-08-19T21:22:16;99727.66;;;25.33;73.95
31717;BME280;18301;51.076;17.046;2022-08-19T21:27:18;99713.91;;;25.26;73.40
31717;BME280;18301;51.076;17.046;2022-08-19T21:32:19;99696.09;;;25.22;72.37
31717;BME280;18301;51.076;17.046;2022-08-19T21:37:21;99692.72;;;25.20;72.61
31717;BME280;18301;51.076;17.046;2022-08-19T21:42:26;99700.78;;;25.22;71.94
31717;BME280;18301;51.076;17.046;2022-08-19T21:47:27;99673.63;;;25.19;71.38
31717;BME280;18301;51.076;17.046;2022-08-19T21:52:29;99676.16;;;25.20;71.01
31717;BME280;18301;51.076;17.046;2022-08-19T21:57:31;99663.63;;;25.18;71.01
31717;BME280;18301;51.076;17.046;2022-08-19T22:02:32;99663.88;;;25.16;71.27
31717;BME280;18301;51.076;17.046;2022-08-19T22:07:34;99658.03;;;24.99;71.78
31717;BME280;18301;51.076;17.046;2022-08-19T22:12:38;99636.53;;;24.83;72.47
31717;BME280;18301;51.076;17.046;2022-08-19T22:17:52;99640.13;;;24.84;72.29
31717;BME280;18301;51.076;17.046;2022-08-19T22:22:57;99634.72;;;24.95;71.53
31717;BME280;18301;51.076;17.046;2022-08-19T22:28:01;99650.06;;;24.91;71.75
31717;BME280;18301;51.076;17.046;2022-08-19T22:33:07;99639.94;;;24.85;71.92
31717;BME280;18301;51.076;17.046;2022-08-19T22:38:10;99654.44;;;24.74;72.41
31717;BME280;18301;51.076;17.046;2022-08-19T22:43:16;99648.53;;;24.70;72.51
31717;BME280;18301;51.076;17.046;2022-08-19T22:48:21;99628.97;;;24.72;72.33
31717;BME280;18301;51.076;17.046;2022-08-19T22:53:23;99628.53;;;24.75;72.36
31717;BME280;18301;51.076;17.046;2022-08-19T22:58:25;99647.84;;;24.75;72.09
31717;BME280;18301;51.076;17.046;2022-08-19T23:03:28;99653.06;;;24.58;72.88
31717;BME280;18301;51.076;17.046;2022-08-19T23:08:30;99659.53;;;24.45;73.31
31717;BME280;18301;51.076;17.046;2022-08-19T23:13:32;99645.97;;;24.37;73.86
31717;BME280;18301;51.076;17.046;2022-08-19T23:18:33;99654.44;;;24.42;74.33
31717;BME280;18301;51.076;17.046;2022-08-19T23:23:36;99656.34;;;24.35;74.36
31717;BME280;18301;51.076;17.046;2022-08-19T23:28:39;99651.69;;;24.42;74.41
31717;BME280;18301;51.076;17.046;2022-08-19T23:33:59;99640.22;;;24.39;74.55
31717;BME280;18301;51.076;17.046;2022-08-19T23:39:01;99637.28;;;24.33;75.93
31717;BME280;18301;51.076;17.046;2022-08-19T23:44:03;99640.69;;;24.29;75.61
31717;BME280;18301;51.076;17.046;2022-08-19T23:49:14;99651.97;;;24.27;75.96
31717;BME280;18301;51.076;17.046;2022-08-19T23:54:16;99653.03;;;24.26;75.73
31717;BME280;18301;51.076;17.046;2022-08-19T23:59:18;99651.38;;;24.19;76.54
